createdAt,value
2019-03-24T00:04:55.086Z,19.60
2019-03-24T00:10:36.773Z,16.73
2019-03-24T00:15:41.900Z,18.40
2019-03-24T00:20:46.487Z,25.90
2019-03-24T00:26:29.573Z,17.13
2019-03-24T00:31:34.497Z,21.40
2019-03-24T00:37:14.801Z,25.17
2019-03-24T00:42:19.443Z,18.87
2019-03-24T00:47:59.496Z,25.00
2019-03-24T00:53:07.205Z,24.47
2019-03-24T00:58:47.075Z,21.47
2019-03-24T01:03:51.145Z,20.87
2019-03-24T01:08:59.755Z,24.53
2019-03-24T01:14:06.643Z,23.50
2019-03-24T01:19:47.127Z,31.47
2019-03-24T01:24:53.694Z,23.53
2019-03-24T01:30:00.661Z,20.30
2019-03-24T01:35:07.380Z,26.70
2019-03-24T01:40:11.870Z,20.13
2019-03-24T01:45:16.484Z,14.17
2019-03-24T01:50:22.902Z,19.77
2019-03-24T01:55:27.474Z,22.73
2019-03-24T02:00:31.727Z,18.57
2019-03-24T02:05:35.839Z,25.07
2019-03-24T02:10:39.781Z,29.43
2019-03-24T02:15:44.079Z,21.30
2019-03-24T02:20:48.567Z,25.03
2019-03-24T02:25:55.509Z,25.70
2019-03-24T02:31:01.116Z,20.20
2019-03-24T02:36:40.936Z,23.93
2019-03-24T02:41:47.909Z,24.13
2019-03-24T02:47:28.145Z,20.07
2019-03-24T02:52:48.164Z,21.90
2019-03-24T02:57:52.702Z,27.20
2019-03-24T03:03:32.941Z,17.47
2019-03-24T03:08:38.348Z,20.63
2019-03-24T03:14:18.320Z,23.07
2019-03-24T03:19:22.339Z,18.20
2019-03-24T03:25:04.662Z,18.93
2019-03-24T03:30:17.335Z,19.67
2019-03-24T03:35:57.419Z,20.30
2019-03-24T03:41:02.856Z,23.83
2019-03-24T03:46:06.816Z,17.60
2019-03-24T03:51:12.163Z,16.70
2019-03-24T03:56:52.075Z,20.37
2019-03-24T04:01:58.376Z,20.37
2019-03-24T04:07:02.798Z,21.43
2019-03-24T04:12:43.381Z,18.47
2019-03-24T04:17:50.769Z,21.60
2019-03-24T04:23:33.880Z,22.03
2019-03-24T04:28:37.827Z,19.30
2019-03-24T04:34:18.654Z,25.27
2019-03-24T04:39:22.616Z,22.10
2019-03-24T04:45:02.378Z,21.23
2019-03-24T04:50:07.150Z,22.63
2019-03-24T04:55:46.844Z,19.87
2019-03-24T05:00:52.349Z,11.27
2019-03-24T05:06:14.112Z,19.97
2019-03-24T05:11:18.176Z,21.10
2019-03-24T05:16:58.256Z,18.17
2019-03-24T05:22:02.278Z,19.77
2019-03-24T05:27:42.556Z,22.13
2019-03-24T05:32:49.026Z,25.40
2019-03-24T05:38:28.977Z,17.23
2019-03-24T05:43:35.085Z,20.63
2019-03-24T05:49:15.420Z,18.63
2019-03-24T05:54:26.454Z,13.00
2019-03-24T06:00:06.411Z,18.03
2019-03-24T06:05:10.471Z,17.53
2019-03-24T06:10:14.757Z,15.27
2019-03-24T06:15:18.693Z,29.77
2019-03-24T06:20:58.388Z,21.40
2019-03-24T06:26:02.414Z,19.00
2019-03-24T06:31:42.343Z,21.27
2019-03-24T06:36:46.463Z,19.43
2019-03-24T06:42:26.282Z,24.37
2019-03-24T06:47:30.509Z,18.87
2019-03-24T06:53:10.280Z,14.57
2019-03-24T06:58:14.737Z,22.87
2019-03-24T07:04:11.483Z,13.17
2019-03-24T07:09:15.547Z,18.30
2019-03-24T07:14:57.411Z,27.90
2019-03-24T07:20:01.505Z,16.47
2019-03-24T07:38:21.381Z,15.50
2019-03-24T07:44:13.670Z,17.87
2019-03-24T07:49:53.999Z,17.90
2019-03-24T07:55:00.295Z,16.93
2019-03-24T08:00:40.632Z,17.53
2019-03-24T08:05:44.690Z,22.13
2019-03-24T08:10:48.814Z,27.70
2019-03-24T08:15:52.857Z,17.90
2019-03-24T08:20:56.834Z,17.00
2019-03-24T08:26:36.967Z,16.53
2019-03-24T08:31:42.078Z,16.03
2019-03-24T08:36:43.410Z,18.67
2019-03-24T08:41:42.130Z,14.50
2019-03-24T08:46:40.220Z,13.30
2019-03-24T08:51:38.715Z,14.20
2019-03-24T08:56:37.012Z,23.23
2019-03-24T09:01:37.064Z,19.23
2019-03-24T09:06:35.131Z,15.97
2019-03-24T09:10:41.422Z,15.33
2019-03-24T09:15:39.105Z,20.77
2019-03-24T09:20:41.496Z,15.30
2019-03-24T09:25:36.866Z,16.57
2019-03-24T09:30:34.708Z,16.20
2019-03-24T09:35:32.355Z,15.03
2019-03-24T09:40:30.194Z,14.90
2019-03-24T09:45:27.885Z,11.13
2019-03-24T09:50:25.603Z,12.07
2019-03-24T09:55:23.387Z,17.80
2019-03-24T10:00:20.948Z,16.27
2019-03-24T10:05:18.709Z,17.03
2019-03-24T10:09:24.672Z,14.37
2019-03-24T10:14:22.042Z,15.93
2019-03-24T10:19:19.578Z,12.70
2019-03-24T10:24:17.101Z,13.97
2019-03-24T10:29:15.382Z,11.23
2019-03-24T10:33:24.724Z,22.00
2019-03-24T10:37:30.538Z,15.90
2019-03-24T10:42:28.032Z,12.40
2019-03-24T10:47:25.818Z,16.77
2019-03-24T10:52:23.238Z,12.00
2019-03-24T10:57:20.658Z,15.87
2019-03-24T11:02:18.127Z,12.73
2019-03-24T11:11:37.575Z,17.73
2019-03-24T11:16:35.423Z,17.23
2019-03-24T11:21:33.087Z,11.20
2019-03-24T11:26:30.467Z,17.47
2019-03-24T11:31:28.093Z,10.10
2019-03-24T11:36:08.317Z,17.40
2019-03-24T11:41:05.989Z,14.37
2019-03-24T11:46:03.637Z,17.43
2019-03-24T11:51:01.176Z,11.70
2019-03-24T11:55:59.361Z,17.50
2019-03-24T12:06:14.750Z,13.23
2019-03-24T12:10:18.881Z,5.50
2019-03-24T12:15:16.904Z,9.47
2019-03-24T12:25:30.807Z,9.37
2019-03-24T12:30:29.378Z,5.43
2019-03-24T12:34:32.949Z,4.23
2019-03-24T12:39:12.572Z,6.20
2019-03-24T12:44:10.710Z,5.00
2019-03-24T12:54:25.537Z,7.37
2019-03-24T13:04:39.588Z,7.57
2019-03-24T13:09:37.098Z,6.93
2019-03-24T13:13:40.732Z,6.13
2019-03-24T13:23:42.231Z,4.50
2019-03-24T13:28:43.748Z,4.80
2019-03-24T13:33:23.308Z,7.30
2019-03-24T13:37:29.475Z,6.77
2019-03-24T13:42:26.969Z,6.40
2019-03-24T13:47:24.455Z,8.70
2019-03-24T13:57:37.965Z,7.10
2019-03-24T14:02:35.692Z,8.23
2019-03-24T14:11:58.589Z,4.83
2019-03-24T14:16:56.547Z,6.20
2019-03-24T14:21:54.920Z,5.10
2019-03-24T14:26:52.709Z,6.60
2019-03-24T14:31:50.567Z,6.33
2019-03-24T14:36:29.933Z,7.17
2019-03-24T14:40:33.504Z,6.70
2019-03-24T14:45:31.766Z,4.97
2019-03-24T14:55:46.580Z,7.20
2019-03-24T15:06:00.393Z,4.10
2019-03-24T15:10:04.403Z,5.90
2019-03-24T15:15:02.702Z,7.23
2019-03-24T15:20:00.435Z,5.00
2019-03-24T15:30:13.977Z,6.70
2019-03-24T15:35:05.786Z,4.40
2019-03-24T15:39:45.563Z,5.30
2019-03-24T15:49:59.429Z,6.33
2019-03-24T15:54:56.938Z,8.10
2019-03-24T15:59:54.348Z,8.13
2019-03-24T16:04:51.734Z,8.87
2019-03-24T16:09:49.304Z,5.30
2019-03-24T16:13:52.914Z,9.90
2019-03-24T16:18:51.202Z,5.77
2019-03-24T16:23:49.341Z,8.03
2019-03-24T16:28:47.010Z,14.00
2019-03-24T16:33:44.645Z,11.17
2019-03-24T16:38:23.961Z,8.40
2019-03-24T16:43:21.689Z,7.27
2019-03-24T16:48:19.141Z,13.17
2019-03-24T16:58:33.011Z,14.63
2019-03-24T17:03:31.594Z,9.23
2019-03-24T17:08:29.281Z,7.83
2019-03-24T17:12:32.869Z,12.67
2019-03-24T17:17:30.547Z,10.57
2019-03-24T17:22:30.142Z,13.47
2019-03-24T17:27:27.554Z,12.10
2019-03-24T17:32:25.334Z,9.13
2019-03-24T17:37:04.689Z,10.13
2019-03-24T17:41:08.251Z,10.57
2019-03-24T17:46:06.299Z,12.30
2019-03-24T17:51:03.934Z,11.50
2019-03-24T17:56:01.407Z,13.23
2019-03-24T18:00:59.082Z,11.70
2019-03-24T18:05:56.425Z,9.43
2019-03-24T18:10:53.844Z,15.10
2019-03-24T18:14:57.452Z,13.90
2019-03-24T18:19:55.353Z,12.63
2019-03-24T18:24:53.130Z,12.07
2019-03-24T18:29:50.973Z,11.93
2019-03-24T18:34:48.686Z,8.60
2019-03-24T18:39:46.120Z,12.37
2019-03-24T18:44:43.896Z,14.50
2019-03-24T18:54:57.474Z,12.23
2019-03-24T18:59:55.085Z,10.37
2019-03-24T19:04:53.347Z,8.07
2019-03-24T19:09:51.081Z,8.47
2019-03-24T19:13:54.655Z,7.83
2019-03-24T19:18:52.226Z,9.13
2019-03-24T19:23:50.634Z,6.77
2019-03-24T19:34:04.463Z,7.90
2019-03-24T19:39:03.205Z,9.47
2019-03-24T19:44:01.177Z,5.37
2019-03-24T19:48:59.224Z,6.13
2019-03-24T19:59:13.517Z,6.87
2019-03-24T20:09:50.954Z,4.70
2019-03-24T20:30:45.772Z,5.40
2019-03-24T20:35:43.451Z,5.67
2019-03-24T20:40:22.817Z,6.20
2019-03-24T20:45:20.514Z,5.73
2019-03-24T20:50:18.345Z,6.37
2019-03-24T21:00:32.502Z,6.60
2019-03-24T21:05:31.093Z,9.57
2019-03-24T21:10:28.910Z,7.47
2019-03-24T21:14:32.661Z,7.23
2019-03-24T21:19:30.659Z,7.80
2019-03-24T21:24:28.742Z,9.80
2019-03-24T21:29:26.397Z,8.70
2019-03-24T21:34:23.979Z,10.57
2019-03-24T21:39:03.876Z,12.00
2019-03-24T21:44:01.834Z,6.47
2019-03-24T21:48:59.512Z,5.73
2019-03-24T21:53:57.242Z,8.70
2019-03-24T21:58:55.051Z,9.20
2019-03-24T22:03:54.643Z,8.83
2019-03-24T22:08:52.359Z,11.43
2019-03-24T22:13:49.989Z,6.17
2019-03-24T22:18:16.199Z,8.57
2019-03-24T22:23:16.855Z,9.40
2019-03-24T22:28:14.800Z,10.40
2019-03-24T22:33:12.870Z,7.87
2019-03-24T22:37:37.292Z,11.87
2019-03-24T22:42:17.375Z,6.67
2019-03-24T22:47:14.841Z,9.70
2019-03-24T22:52:12.508Z,6.70
2019-03-24T22:57:10.510Z,8.43
2019-03-24T23:02:08.802Z,10.60
2019-03-24T23:07:06.855Z,12.27
2019-03-24T23:12:04.478Z,7.97
2019-03-24T23:16:08.277Z,4.97
2019-03-24T23:21:08.164Z,8.73
2019-03-24T23:26:05.794Z,9.60
2019-03-24T23:31:03.634Z,7.87
2019-03-24T23:36:02.253Z,11.07
2019-03-24T23:41:00.206Z,8.13
2019-03-24T23:45:57.946Z,9.27
2019-03-24T23:50:55.753Z,7.93
2019-03-24T23:55:53.585Z,6.10
